• Join FlightAware (Why Join?)
  • Login
  • US Flag 
02:14AM EDT


 

Airport Tracker/Info


-or-


 

Live Flight TrackerFlight Track Log ✈ N401CG ✈ 01-May-2013 ✈ KSTP - KLNR

Flight Track Log - Related Links

Times and Time Zones

All times are in EDT time to prevent confusion due to time zone crossing. See the N401CG flight status page for this flight to view local times or setup timezone preferences in your user account.

Time Position Orientation Groundspeed Altitude Reporting Facility
EDT Latitude Longitude Course Direction KTS MPH feet Rate Location/Type
07:58AM 44.9500 -93.0833 153° Southeast 134 154 2,000  Level Minneapolis TRACON
07:59AM 44.9756 -93.0494 43° Northeast 163 188 2,700 1,500 Climbing Minneapolis Center
08:00AM 44.9858 -92.9781 78° East 193 222 4,500 1,800 Climbing Minneapolis Center
08:01AM 44.9836 -92.9094 93° East 178 205 6,400 1,680 Climbing Minneapolis Center
08:02AM 44.9597 -92.8511 120° Southeast 185 213 8,000 1,680 Climbing Minneapolis Center
08:03AM 44.9153 -92.8256 158° South 173 199 9,900 1,680 Climbing Minneapolis Center
08:04AM 44.6379 -92.8509 153° Southeast  Level FlightAware Approximate
08:04AM 44.8736 -92.7989 156° South 164 189 11,500  Level Minneapolis Center
08:05AM 44.8336 -92.7739 156° South 160 184 12,100 240 Climbing Minneapolis Center
08:06AM 44.7872 -92.7431 155° Southeast 181 208 12,000 -60 Descending Minneapolis Center
08:07AM 44.7406 -92.7117 154° Southeast 185 213 12,000  Level Minneapolis Center
08:08AM 44.6944 -92.6806 154° Southeast 184 212 12,000  Level Minneapolis Center
08:09AM 44.6486 -92.6511 155° Southeast 181 208 12,000 360 Level Minneapolis Center
08:10AM 44.6139 -92.5972 132° Southeast 187 215 12,800 960 Climbing Minneapolis Center
08:11AM 44.5767 -92.5269 127° Southeast 187 215 14,000 660 Climbing Minneapolis Center
08:12AM 44.5414 -92.4647 128° Southeast 206 237 14,200 960 Climbing Minneapolis Center
08:13AM 44.5097 -92.4061 127° Southeast 189 217 16,000 1,320 Climbing Minneapolis Center
08:14AM 44.4764 -92.3519 131° Southeast 182 209 16,900 420 Climbing Minneapolis Center
08:15AM 44.4386 -92.2842 128° Southeast 229 264 16,900  Level Minneapolis Center
08:16AM 44.3953 -92.2064 128° Southeast 237 273 16,900  Level Minneapolis Center
08:18AM 44.3444 -92.1144 128° Southeast 240 276 16,900  Level Minneapolis Center
08:19AM 44.3033 -92.0408 128° Southeast 242 278 16,900  Level Minneapolis Center
08:20AM 44.2606 -91.9678 129° Southeast 247 284 16,900  Level Minneapolis Center
08:21AM 44.2150 -91.8881 129° Southeast 244 281 17,000  Climbing Minneapolis Center
08:23AM 44.1289 -91.7381 129° Southeast 251 289 17,000  Level Minneapolis Center
08:24AM 44.0822 -91.6553 128° Southeast 253 291 17,100  Climbing Minneapolis Center
08:25AM 44.0389 -91.5800 129° Southeast 253 291 17,000 -60 Descending Minneapolis Center
08:26AM 43.9917 -91.4983 129° Southeast 252 290 17,000  Level Minneapolis Center
08:27AM 43.9475 -91.4208 128° Southeast 257 296 17,000  Level Minneapolis Center
08:28AM 43.9025 -91.3450 129° Southeast 257 296 17,000  Level Minneapolis Center
08:29AM 43.8561 -91.2650 129° Southeast 258 297 17,000  Level Minneapolis Center
08:30AM 43.8089 -91.1847 129° Southeast 258 297 17,000  Level Minneapolis Center
08:31AM 43.7622 -91.1042 129° Southeast 258 297 17,000  Level Minneapolis Center
08:32AM 43.7181 -91.0294 129° Southeast 260 299 17,000 -300 Level Minneapolis Center
08:33AM 43.6697 -90.9486 130° Southeast 261 300 16,500 -1,140 Descending Minneapolis Center
08:34AM 43.6169 -90.8594 129° Southeast 287 330 14,800 -1,620 Descending Minneapolis Center
08:35AM 43.5681 -90.7772 129° Southeast 288 331 13,200 -1,620 Descending Minneapolis Center
08:36AM 43.5192 -90.6914 128° Southeast 274 315 11,500 -1,740 Descending Minneapolis Center
08:37AM 43.4700 -90.6089 129° Southeast 268 308 9,700 -1,740 Descending Minneapolis Center
08:38AM 43.4200 -90.5258 130° Southeast 270 311 8,000 -1,620 Descending Minneapolis Center
08:39AM 43.3756 -90.4514 129° Southeast 265 305 6,400 -1,440 Descending Minneapolis Center
08:40AM 43.3275 -90.3708 129° Southeast 261 300 5,100 -960 Descending Minneapolis Center
08:41AM 43.2842 -90.2972 129° Southeast 242 278 4,500 -600 Descending Minneapolis Center